Time;durP1;ratioP1;P1;durP2;ratioP2;P2;SDS_P1;SDS_P2;PMS_P1;PMS_P2;Temp;Humidity;BMP_temperature;BMP_pressure;BME280_temperature;BME280_humidity;BME280_pressure;Samples;Min_cycle;Max_cycle;Signal;HPM_P1;HPM_P2
2023/06/12 00:01:03;;;;;;;2.33;0.85;;;;;;;15.35;41.32;101886.91;4967900;28;20682;-73
2023/06/12 00:03:29;;;;;;;4.25;1.05;;;;;;;15.28;41.47;101881.97;4951729;28;20058;-72
2023/06/12 00:05:59;;;;;;;3.83;0.98;;;;;;;15.21;41.64;101891.03;4949303;28;20037;-72
2023/06/12 00:08:28;;;;;;;2.37;1.20;;;;;;;15.21;41.52;101883.97;4962243;28;20077;-73
2023/06/12 00:10:55;;;;;;;7.85;1.42;;;;;;;15.20;41.70;101878.81;4963793;28;20144;-73
2023/06/12 00:13:20;;;;;;;5.57;1.33;;;;;;;15.12;41.83;101881.75;4961939;28;20472;-73
2023/06/12 00:15:46;;;;;;;3.17;1.52;;;;;;;15.01;41.92;101884.00;4964997;28;20925;-66
2023/06/12 00:18:12;;;;;;;2.38;0.70;;;;;;;14.88;42.47;101884.53;4963599;28;20069;-65
2023/06/12 00:20:38;;;;;;;2.05;0.70;;;;;;;14.93;42.30;101884.31;4957529;28;20120;-65
2023/06/12 00:23:04;;;;;;;8.07;1.05;;;;;;;14.98;42.17;101879.72;4965156;28;20052;-66
2023/06/12 00:25:29;;;;;;;3.33;1.30;;;;;;;14.86;42.45;101888.16;4966468;28;20057;-66
2023/06/12 00:27:55;;;;;;;6.25;1.52;;;;;;;14.84;42.63;101887.34;4965366;28;20629;-66
2023/06/12 00:30:22;;;;;;;3.35;1.23;;;;;;;14.73;42.92;101875.50;4959057;28;20107;-69
2023/06/12 00:32:48;;;;;;;4.43;1.30;;;;;;;14.68;42.99;101887.09;4961587;28;20061;-70
2023/06/12 00:35:15;;;;;;;3.28;1.42;;;;;;;14.73;42.92;101886.00;4964154;28;20046;-73
2023/06/12 00:37:42;;;;;;;4.18;1.23;;;;;;;14.69;42.80;101886.22;4962132;28;21044;-71
2023/06/12 00:40:11;;;;;;;4.32;1.13;;;;;;;14.71;42.97;101881.75;4965455;28;20253;-71
2023/06/12 00:42:48;;;;;;;5.43;1.08;;;;;;;14.54;43.48;101885.06;4960824;28;20081;-73
2023/06/12 00:45:15;;;;;;;5.47;1.10;;;;;;;14.57;43.43;101884.94;4964868;28;20225;-73
2023/06/12 00:47:42;;;;;;;4.18;1.15;;;;;;;14.50;43.34;101878.19;4965763;28;20407;-77
2023/06/12 00:50:12;;;;;;;8.93;1.23;;;;;;;14.49;43.47;101877.34;4962198;28;20095;-69
2023/06/12 00:52:45;;;;;;;10.70;1.85;;;;;;;14.41;43.72;101874.19;4975927;28;20061;-70
2023/06/12 00:55:11;;;;;;;4.43;1.02;;;;;;;14.47;43.52;101873.06;4964496;28;20050;-69
2023/06/12 00:57:38;;;;;;;4.43;1.20;;;;;;;14.36;43.71;101861.16;4974852;28;20084;-69
2023/06/12 01:00:07;;;;;;;6.40;1.33;;;;;;;14.17;44.38;101868.09;4946051;28;20866;-71
2023/06/12 01:02:39;;;;;;;3.15;1.13;;;;;;;14.34;44.04;101872.66;4940988;28;20069;-72
2023/06/12 01:05:12;;;;;;;5.00;1.30;;;;;;;14.28;43.91;101865.91;4964603;28;20561;-70
2023/06/12 01:07:48;;;;;;;3.13;1.40;;;;;;;14.15;44.30;101867.31;4941261;28;20129;-72
2023/06/12 01:10:40;;;;;;;6.05;1.05;;;;;;;14.15;44.40;101870.78;4974793;28;20050;-70
2023/06/12 01:13:09;;;;;;;4.93;1.40;;;;;;;14.21;44.21;101866.19;4963750;28;20611;-73
2023/06/12 01:15:35;;;;;;;6.90;2.05;;;;;;;14.13;44.37;101861.25;4944671;28;20121;-70
2023/06/12 01:18:03;;;;;;;2.90;1.30;;;;;;;14.07;44.51;101864.09;4951965;28;20063;-70
2023/06/12 01:20:29;;;;;;;7.45;1.67;;;;;;;14.00;44.93;101862.63;4959697;28;20054;-69
2023/06/12 01:23:02;;;;;;;3.55;1.33;;;;;;;13.99;44.68;101860.94;4976977;28;20607;-70
2023/06/12 01:25:56;;;;;;;2.78;1.13;;;;;;;13.92;44.96;101858.53;4959604;28;20440;-74
2023/06/12 01:28:37;;;;;;;3.78;1.40;;;;;;;13.86;45.32;101860.56;4974859;28;21289;-70
2023/06/12 01:31:13;;;;;;;;;;;;;;;13.81;45.36;101865.97;4947851;28;20142;-71
2023/06/12 01:33:42;;;;;;;3.30;1.08;;;;;;;13.83;45.54;101866.78;4958023;28;19957;-69
2023/06/12 01:36:13;;;;;;;5.05;1.67;;;;;;;13.79;45.29;101859.94;4953713;28;20065;-68
2023/06/12 01:38:40;;;;;;;3.92;1.50;;;;;;;13.74;45.67;101856.59;4958813;28;20177;-68
2023/06/12 01:41:09;;;;;;;3.97;1.38;;;;;;;13.72;45.55;101855.81;4945591;28;20030;-69
2023/06/12 01:43:36;;;;;;;3.50;1.45;;;;;;;13.69;45.62;101850.66;4946611;28;20038;-68
2023/06/12 01:46:03;;;;;;;6.03;2.58;;;;;;;13.72;45.77;101858.47;4975898;28;20065;-67
2023/06/12 01:48:29;;;;;;;3.05;1.33;;;;;;;13.67;45.86;101857.75;4971020;28;20034;-68
2023/06/12 01:50:55;;;;;;;4.55;1.60;;;;;;;13.69;45.97;101850.66;4960706;28;20926;-68
2023/06/12 01:53:21;;;;;;;3.72;1.42;;;;;;;13.49;46.55;101852.22;4961974;28;20061;-68
2023/06/12 01:55:49;;;;;;;3.70;1.38;;;;;;;13.40;46.72;101852.56;4960095;28;20126;-68
2023/06/12 01:58:18;;;;;;;5.78;2.05;;;;;;;13.49;46.26;101849.59;4961837;28;20046;-69
2023/06/12 02:01:19;;;;;;;3.50;1.60;;;;;;;13.41;46.58;101846.41;4970860;28;20854;-71
2023/06/12 02:03:48;;;;;;;7.55;1.73;;;;;;;13.38;46.69;101849.13;4957816;28;20069;-71
2023/06/12 02:06:17;;;;;;;4.72;1.88;;;;;;;13.35;46.22;101843.16;4936678;28;20035;-69
2023/06/12 02:08:47;;;;;;;9.00;1.85;;;;;;;13.39;46.23;101845.63;4958601;28;20087;-68
2023/06/12 02:11:13;;;;;;;7.85;1.60;;;;;;;13.21;46.66;101851.53;4962764;28;20045;-68
2023/06/12 02:13:39;;;;;;;11.13;1.80;;;;;;;13.31;46.50;101845.03;4938830;28;20089;-68
2023/06/12 02:16:06;;;;;;;6.60;1.77;;;;;;;13.17;46.73;101847.31;4962863;28;20039;-68
2023/06/12 02:18:32;;;;;;;6.35;1.45;;;;;;;13.19;47.14;101848.09;4944185;28;20085;-68
2023/06/12 02:20:57;;;;;;;5.32;1.60;;;;;;;13.11;47.04;101845.72;4960833;28;20405;-69
2023/06/12 02:23:25;;;;;;;5.57;1.58;;;;;;;13.04;47.04;101850.34;4946112;28;20450;-69
2023/06/12 02:25:50;;;;;;;6.07;1.73;;;;;;;12.87;47.99;101839.56;4959451;28;20037;-70
2023/06/12 02:28:16;;;;;;;4.68;1.80;;;;;;;13.05;47.57;101840.72;4961133;28;20156;-67
2023/06/12 02:30:41;;;;;;;3.38;1.63;;;;;;;13.06;47.00;101839.81;4917120;28;20054;-67
2023/06/12 02:33:09;;;;;;;5.75;1.65;;;;;;;13.02;47.26;101844.28;4961771;28;20034;-69
2023/06/12 02:35:36;;;;;;;5.43;1.63;;;;;;;13.07;47.47;101841.50;4972467;28;20035;-70
2023/06/12 02:38:02;;;;;;;7.60;1.70;;;;;;;13.03;47.42;101843.41;4964169;28;20038;-70
2023/06/12 02:40:28;;;;;;;5.28;2.05;;;;;;;13.01;47.82;101844.38;4935872;28;20049;-69
2023/06/12 02:42:53;;;;;;;3.92;1.40;;;;;;;13.06;47.52;101843.28;4974624;28;20038;-69
2023/06/12 02:45:22;;;;;;;4.93;1.20;;;;;;;12.97;47.56;101846.22;4960256;28;20050;-69
2023/06/12 02:47:47;;;;;;;7.28;2.25;;;;;;;12.83;47.62;101841.47;4960333;28;20041;-72
2023/06/12 02:50:13;;;;;;;7.95;1.98;;;;;;;12.98;47.32;101837.47;4963636;28;20419;-72
2023/06/12 02:52:48;;;;;;;7.00;2.35;;;;;;;12.76;47.95;101844.31;4962518;28;20856;-71
2023/06/12 02:55:14;;;;;;;9.68;2.72;;;;;;;12.74;47.86;101838.31;4926738;28;20088;-71
2023/06/12 02:57:41;;;;;;;4.70;1.50;;;;;;;12.62;48.27;101842.13;4946898;28;20185;-71
2023/06/12 03:00:08;;;;;;;5.75;1.65;;;;;;;12.38;49.01;101838.53;4950270;28;20062;-71
2023/06/12 03:02:44;;;;;;;3.38;1.48;;;;;;;12.49;48.54;101839.94;4946574;28;20030;-72
2023/06/12 03:05:14;;;;;;;3.83;1.60;;;;;;;12.45;48.87;101834.84;4971415;28;20064;-72
2023/06/12 03:07:42;;;;;;;6.72;2.58;;;;;;;12.33;49.63;101835.22;4948727;28;20073;-71
2023/06/12 03:10:09;;;;;;;5.05;1.88;;;;;;;12.43;49.67;101841.91;4944083;28;20817;-73
2023/06/12 03:12:35;;;;;;;3.90;2.17;;;;;;;12.59;49.40;101839.63;4967708;28;20228;-70
2023/06/12 03:15:05;;;;;;;2.97;1.52;;;;;;;12.52;49.59;101840.75;4969691;28;20046;-79
2023/06/12 03:17:30;;;;;;;6.03;2.03;;;;;;;12.52;49.89;101844.22;4968690;28;20060;-78
2023/06/12 03:19:56;;;;;;;7.50;2.13;;;;;;;12.63;49.55;101843.88;4949985;28;20416;-79
2023/06/12 03:22:22;;;;;;;3.55;1.30;;;;;;;12.73;49.32;101841.81;4950616;28;20118;-78
2023/06/12 03:24:53;;;;;;;6.03;1.95;;;;;;;12.75;49.15;101846.09;4951087;28;20034;-78
2023/06/12 03:27:20;;;;;;;3.65;2.03;;;;;;;12.72;49.32;101843.59;4959846;28;20054;-77
2023/06/12 03:29:48;;;;;;;7.53;2.22;;;;;;;12.88;49.14;101838.69;4952824;28;20026;-78
2023/06/12 03:32:14;;;;;;;3.65;2.03;;;;;;;12.78;49.20;101848.63;4969944;28;20061;-78
2023/06/12 03:34:47;;;;;;;6.35;2.13;;;;;;;12.86;49.37;101851.84;4956159;28;20030;-80
2023/06/12 03:37:13;;;;;;;6.28;1.75;;;;;;;12.82;48.98;101849.38;4975865;28;20493;-79
2023/06/12 03:39:40;;;;;;;8.32;1.73;;;;;;;12.84;48.91;101852.81;4961387;28;20038;-71
2023/06/12 03:42:07;;;;;;;5.22;1.70;;;;;;;12.79;49.35;101854.72;4967124;28;20447;-72
2023/06/12 03:44:41;;;;;;;4.38;1.95;;;;;;;12.73;49.41;101852.31;4979273;28;20046;-71
2023/06/12 03:47:06;;;;;;;5.07;1.80;;;;;;;12.85;48.93;101852.75;4971490;28;20029;-72
2023/06/12 03:49:32;;;;;;;9.63;1.88;;;;;;;12.85;48.94;101854.53;4956416;28;20050;-71
2023/06/12 03:51:57;;;;;;;5.80;1.75;;;;;;;12.86;49.56;101849.22;4964485;28;20030;-71
2023/06/12 03:54:23;;;;;;;5.88;1.85;;;;;;;12.85;49.34;101851.91;4938717;28;20038;-72
2023/06/12 03:56:49;;;;;;;10.88;2.00;;;;;;;12.84;49.37;101852.81;4961368;28;20034;-71
2023/06/12 03:59:16;;;;;;;8.90;2.47;;;;;;;12.92;49.36;101852.56;4939046;28;20095;-71
2023/06/12 04:01:42;;;;;;;3.35;2.05;;;;;;;13.00;49.42;101848.72;4960298;28;20022;-72
2023/06/12 04:04:11;;;;;;;6.53;1.77;;;;;;;12.96;49.60;101852.41;4954057;28;20042;-71
2023/06/12 04:06:40;;;;;;;5.88;1.80;;;;;;;13.08;49.19;101856.34;4963098;28;20080;-72
2023/06/12 04:09:07;;;;;;;3.63;2.10;;;;;;;13.12;49.26;101852.72;4963515;28;20042;-72
2023/06/12 04:11:38;;;;;;;6.93;1.60;;;;;;;13.27;48.94;101846.03;4964932;28;20447;-71
2023/06/12 04:14:05;;;;;;;6.72;1.42;;;;;;;13.26;49.11;101854.84;4952819;28;20279;-73
2023/06/12 04:16:31;;;;;;;5.05;1.73;;;;;;;13.29;49.02;101855.59;4963093;28;21004;-74
2023/06/12 04:18:57;;;;;;;4.70;1.90;;;;;;;13.16;49.31;101856.06;4962823;28;20042;-73
2023/06/12 04:21:23;;;;;;;6.72;1.67;;;;;;;13.37;49.00;101863.19;4946790;28;20399;-73
2023/06/12 04:23:51;;;;;;;5.38;2.17;;;;;;;13.66;47.94;101856.03;4961015;28;20038;-69
2023/06/12 04:26:17;;;;;;;3.50;2.13;;;;;;;13.77;47.91;101855.66;4963087;28;20030;-74
2023/06/12 04:28:46;;;;;;;8.30;1.70;;;;;;;13.53;48.15;101853.84;4947892;28;20038;-75
2023/06/12 04:31:15;;;;;;;4.18;1.75;;;;;;;13.60;48.44;101853.63;4961486;28;20073;-75
2023/06/12 04:33:41;;;;;;;6.75;1.77;;;;;;;14.04;47.20;101848.47;4963048;28;20034;-76
2023/06/12 04:36:07;;;;;;;7.03;1.77;;;;;;;14.09;46.92;101846.50;4960641;28;20027;-69
2023/06/12 04:38:36;;;;;;;5.00;1.65;;;;;;;14.23;46.60;101849.47;4964099;28;20043;-69
2023/06/12 04:41:03;;;;;;;7.75;2.08;;;;;;;14.18;46.73;101846.13;4953113;28;20049;-78
2023/06/12 04:43:29;;;;;;;8.55;2.88;;;;;;;14.21;46.80;101848.66;4960064;28;20042;-78
2023/06/12 04:45:57;;;;;;;4.40;2.13;;;;;;;14.38;46.74;101844.47;4972213;28;20526;-78
2023/06/12 04:48:23;;;;;;;5.55;1.98;;;;;;;14.45;46.38;101849.44;4952751;28;20034;-70
2023/06/12 04:50:50;;;;;;;4.22;1.63;;;;;;;14.45;46.35;101844.19;4960929;28;20033;-68
2023/06/12 04:53:19;;;;;;;3.83;1.73;;;;;;;14.64;46.34;101841.66;4962882;28;20038;-69
2023/06/12 04:55:56;;;;;;;8.93;2.15;;;;;;;14.79;45.81;101850.72;4972665;28;20042;-69
2023/06/12 04:58:22;;;;;;;7.15;1.85;;;;;;;14.67;46.17;101856.47;4964659;28;20090;-69
2023/06/12 05:00:48;;;;;;;6.70;2.40;;;;;;;15.02;45.21;101849.72;4967383;28;20030;-69
2023/06/12 05:03:16;;;;;;;7.97;2.22;;;;;;;15.31;45.24;101850.25;4953703;28;20042;-69
2023/06/12 05:05:42;;;;;;;6.18;1.65;;;;;;;16.51;42.91;101847.25;4962754;28;20064;-69
2023/06/12 05:08:08;;;;;;;8.80;2.20;;;;;;;18.24;38.77;101847.78;4961592;28;20030;-71
2023/06/12 05:10:33;;;;;;;3.67;1.98;;;;;;;19.93;35.17;101853.50;4957759;28;20038;-69
2023/06/12 05:12:59;;;;;;;5.50;2.20;;;;;;;20.80;33.32;101844.22;4962089;28;20048;-72
2023/06/12 05:15:24;;;;;;;7.40;2.45;;;;;;;21.88;31.91;101852.63;4962106;28;20145;-72
2023/06/12 05:17:50;;;;;;;8.48;1.90;;;;;;;22.53;30.44;101852.22;4960467;28;20039;-72
2023/06/12 05:20:15;;;;;;;8.65;1.50;;;;;;;23.24;29.75;101852.13;4961437;28;20606;-75
2023/06/12 05:22:41;;;;;;;3.25;1.80;;;;;;;23.42;29.48;101847.16;4946801;28;20404;-66
2023/06/12 05:25:09;;;;;;;7.20;2.22;;;;;;;23.69;29.04;101849.44;4959100;28;20794;-67
2023/06/12 05:27:34;;;;;;;6.88;1.90;;;;;;;24.07;27.33;101848.16;4969703;28;20198;-71
2023/06/12 05:30:04;;;;;;;5.90;2.40;;;;;;;23.73;28.00;101850.88;4959514;28;20221;-71
2023/06/12 05:32:30;;;;;;;12.13;2.20;;;;;;;23.57;28.71;101845.09;4940746;28;20030;-70
2023/06/12 05:34:55;;;;;;;7.07;2.03;;;;;;;24.22;28.20;101838.88;4957331;28;20690;-67
2023/06/12 05:37:21;;;;;;;9.50;3.35;;;;;;;24.62;27.17;101843.56;4961258;28;20034;-73
2023/06/12 05:39:47;;;;;;;6.78;2.15;;;;;;;24.85;26.96;101841.56;4945306;28;20038;-73
2023/06/12 05:42:12;;;;;;;8.30;2.47;;;;;;;24.93;27.41;101845.41;4977654;28;20124;-67
2023/06/12 05:44:38;;;;;;;2.47;1.58;;;;;;;25.20;26.83;101842.19;4958309;28;20034;-66
2023/06/12 05:47:04;;;;;;;7.55;2.33;;;;;;;24.81;26.94;101847.31;4961695;28;20084;-72
2023/06/12 05:49:32;;;;;;;5.68;2.30;;;;;;;25.56;25.64;101839.94;4960136;28;20030;-73
2023/06/12 05:51:58;;;;;;;3.08;1.73;;;;;;;25.72;26.17;101842.94;4962752;28;20061;-69
2023/06/12 05:54:23;;;;;;;6.97;2.17;;;;;;;27.13;23.70;101838.91;4961971;28;20677;-72
2023/06/12 05:56:51;;;;;;;5.75;2.42;;;;;;;26.65;24.32;101843.41;4960907;28;20038;-74
2023/06/12 05:59:17;;;;;;;5.03;2.15;;;;;;;26.96;23.97;101838.66;4949394;28;20549;-73
2023/06/12 06:01:43;;;;;;;6.55;1.58;;;;;;;27.24;23.74;101836.03;4959160;28;20129;-73
2023/06/12 06:04:11;;;;;;;5.35;1.77;;;;;;;27.00;24.53;101832.00;4960804;28;20045;-75
2023/06/12 06:06:38;;;;;;;5.22;2.17;;;;;;;27.79;23.23;101838.69;4959143;28;20058;-75
2023/06/12 06:09:07;;;;;;;4.78;2.05;;;;;;;27.40;23.19;101840.75;4959672;28;20170;-74
2023/06/12 06:11:33;;;;;;;6.82;1.92;;;;;;;27.31;23.23;101840.63;4949214;28;20046;-74
2023/06/12 06:13:59;;;;;;;4.43;1.85;;;;;;;26.69;24.87;101842.13;4960309;28;20070;-73
2023/06/12 06:16:25;;;;;;;3.78;1.45;;;;;;;27.55;23.38;101843.78;4937448;28;20050;-74
2023/06/12 06:18:51;;;;;;;3.63;1.98;;;;;;;27.80;22.68;101843.06;4942642;28;20042;-73
2023/06/12 06:21:22;;;;;;;5.00;1.88;;;;;;;27.95;22.58;101839.88;4949804;28;20049;-71
2023/06/12 06:23:58;;;;;;;5.65;1.83;;;;;;;27.95;22.19;101840.69;4952982;28;20050;-74
2023/06/12 06:26:34;;;;;;;3.50;2.00;;;;;;;27.89;22.42;101846.69;4961002;28;20562;-73
2023/06/12 06:29:07;;;;;;;3.22;1.88;;;;;;;28.30;22.30;101845.25;4939285;28;20061;-72
2023/06/12 06:31:37;;;;;;;7.40;2.05;;;;;;;28.41;21.62;101843.28;4963351;28;20420;-72
2023/06/12 06:34:13;;;;;;;6.60;1.80;;;;;;;28.00;21.93;101848.28;4945241;28;20111;-74
2023/06/12 06:36:41;;;;;;;4.30;1.98;;;;;;;28.45;21.56;101852.72;4967199;28;20057;-72
2023/06/12 06:39:27;;;;;;;8.95;2.05;;;;;;;28.65;21.91;101851.56;4961036;28;20618;-73
2023/06/12 06:42:00;;;;;;;3.80;2.22;;;;;;;28.49;21.69;101854.13;4962635;28;20344;-72
2023/06/12 06:44:34;;;;;;;;;;;;;;;28.77;21.40;101844.09;4924362;28;20042;-72
2023/06/12 06:47:12;;;;;;;5.45;2.45;;;;;;;28.48;21.87;101857.81;4935212;28;20274;-69
2023/06/12 06:49:45;;;;;;;5.97;2.50;;;;;;;28.81;21.53;101847.28;4931768;28;20046;-70
2023/06/12 06:52:18;;;;;;;3.95;2.30;;;;;;;29.90;19.83;101839.31;4960544;28;20066;-75
2023/06/12 06:54:46;;;;;;;4.63;2.33;;;;;;;29.12;20.67;101851.19;4954372;28;20710;-74
2023/06/12 06:57:21;;;;;;;6.05;2.33;;;;;;;28.41;21.42;101851.34;4965028;28;20030;-72
2023/06/12 06:59:54;;;;;;;6.03;1.75;;;;;;;28.28;22.10;101858.00;4950797;28;20061;-72
2023/06/12 07:02:27;;;;;;;3.97;2.60;;;;;;;28.65;22.43;101856.09;4943089;28;20113;-73
2023/06/12 07:04:58;;;;;;;6.65;2.33;;;;;;;29.01;21.80;101845.22;4925036;28;20393;-73
2023/06/12 07:07:26;;;;;;;5.25;2.80;;;;;;;29.53;20.59;101842.44;4958815;28;20048;-69
2023/06/12 07:10:02;;;;;;;;;;;;;;;;;;;;;
2023/06/12 07:12:41;;;;;;;3.80;2.55;;;;;;;29.99;19.88;101853.63;4962995;28;20206;-69
2023/06/12 07:15:12;;;;;;;4.30;2.53;;;;;;;29.39;20.38;101851.97;4933848;28;20745;-71
2023/06/12 07:17:41;;;;;;;6.57;2.60;;;;;;;28.80;22.04;101856.38;4953502;28;20030;-71
2023/06/12 07:20:15;;;;;;;4.82;2.22;;;;;;;29.36;20.88;101858.50;4924655;28;20042;-71
2023/06/12 07:22:43;;;;;;;5.32;2.38;;;;;;;29.22;20.75;101851.06;4947803;28;20031;-73
2023/06/12 07:25:18;;;;;;;4.88;2.17;;;;;;;29.46;20.80;101858.41;4960187;28;20506;-70
2023/06/12 07:27:44;;;;;;;6.55;2.50;;;;;;;29.70;20.54;101854.09;4977697;28;20034;-72
2023/06/12 07:30:13;;;;;;;7.82;2.65;;;;;;;30.42;19.62;101848.09;4960002;28;20107;-71
2023/06/12 07:32:38;;;;;;;5.97;3.05;;;;;;;30.94;19.35;101853.94;4967622;28;20035;-68
2023/06/12 07:35:07;;;;;;;3.13;2.67;;;;;;;31.27;18.72;101850.28;4962272;28;20272;-70
2023/06/12 07:37:35;;;;;;;3.67;2.30;;;;;;;31.56;18.60;101850.50;4978825;28;20637;-70
2023/06/12 07:40:04;;;;;;;6.50;3.05;;;;;;;31.24;19.04;101848.78;4969672;28;20663;-72
2023/06/12 07:42:30;;;;;;;4.90;2.40;;;;;;;31.16;19.40;101846.97;4965438;28;20061;-72
2023/06/12 07:44:56;;;;;;;5.47;2.55;;;;;;;31.25;20.04;101847.78;4961144;28;20073;-72
2023/06/12 07:47:21;;;;;;;5.03;3.20;;;;;;;31.28;18.81;101843.88;4976156;28;20036;-71
2023/06/12 07:49:47;;;;;;;5.30;3.28;;;;;;;31.48;19.24;101844.31;4962771;28;20030;-69
2023/06/12 07:52:12;;;;;;;3.53;2.78;;;;;;;31.57;19.20;101838.66;4962880;28;20121;-70
2023/06/12 07:54:38;;;;;;;7.70;2.45;;;;;;;31.33;19.32;101842.31;4961466;28;20034;-69
2023/06/12 07:57:09;;;;;;;6.50;2.60;;;;;;;32.01;19.12;101846.16;4962118;28;20219;-70
2023/06/12 07:59:37;;;;;;;3.15;2.80;;;;;;;31.96;18.23;101843.19;4957733;28;20157;-72
2023/06/12 08:02:03;;;;;;;8.55;2.90;;;;;;;31.62;19.41;101847.06;4960589;28;20064;-71
2023/06/12 08:04:30;;;;;;;9.63;2.95;;;;;;;32.03;19.09;101843.28;4955688;28;20045;-71
2023/06/12 08:06:56;;;;;;;5.63;3.80;;;;;;;31.98;18.52;101846.50;4968576;28;20057;-72
2023/06/12 08:09:26;;;;;;;6.55;2.70;;;;;;;32.02;18.99;101847.84;4961254;28;20446;-71
2023/06/12 08:11:52;;;;;;;4.80;2.83;;;;;;;32.70;18.95;101839.81;4963013;28;20387;-72
2023/06/12 08:14:18;;;;;;;5.90;3.22;;;;;;;32.31;18.66;101846.25;4976492;28;20873;-70
2023/06/12 08:16:45;;;;;;;5.85;3.78;;;;;;;32.44;18.31;101840.25;4979612;28;20038;-71
2023/06/12 08:19:13;;;;;;;11.68;3.08;;;;;;;32.57;18.34;101845.03;4964125;28;20052;-71
2023/06/12 08:21:39;;;;;;;9.18;5.15;;;;;;;31.95;18.71;101843.34;4974886;28;20031;-70
2023/06/12 08:24:10;;;;;;;8.98;3.85;;;;;;;32.01;18.79;101842.63;4943817;28;20096;-71
2023/06/12 08:26:36;;;;;;;8.60;3.70;;;;;;;32.68;18.28;101847.28;4945363;28;20045;-71
2023/06/12 08:29:02;;;;;;;7.38;4.22;;;;;;;32.26;19.53;101845.97;4952427;28;20034;-71
2023/06/12 08:31:33;;;;;;;7.60;3.10;;;;;;;32.16;18.02;101843.53;4959173;28;20495;-72
2023/06/12 08:34:01;;;;;;;9.25;3.33;;;;;;;32.05;18.86;101840.38;4959590;28;20175;-71
2023/06/12 08:36:26;;;;;;;7.50;3.50;;;;;;;31.64;20.09;101835.25;4960846;28;20332;-71
2023/06/12 08:38:52;;;;;;;9.80;3.83;;;;;;;32.20;18.71;101839.41;4961484;28;22142;-71
2023/06/12 08:41:20;;;;;;;5.20;3.25;;;;;;;32.57;17.82;101836.91;4946161;28;20438;-72
2023/06/12 08:43:49;;;;;;;5.38;3.33;;;;;;;32.23;19.27;101833.66;4965837;28;20132;-73
2023/06/12 08:46:17;;;;;;;5.20;4.00;;;;;;;31.89;18.54;101847.56;4961840;28;20038;-71
2023/06/12 08:48:44;;;;;;;4.65;3.70;;;;;;;32.36;18.47;101841.09;4958842;28;20590;-71
2023/06/12 08:51:10;;;;;;;8.90;3.53;;;;;;;32.96;18.10;101833.91;4957767;28;20984;-71
2023/06/12 08:53:36;;;;;;;6.15;3.65;;;;;;;32.30;18.09;101839.16;4958992;28;20318;-71
2023/06/12 08:56:02;;;;;;;6.03;4.05;;;;;;;31.61;19.08;101842.69;4957979;28;20046;-71
2023/06/12 08:58:27;;;;;;;7.55;3.83;;;;;;;31.47;19.20;101837.19;4958429;28;20559;-71
2023/06/12 09:00:53;;;;;;;6.88;4.18;;;;;;;31.39;18.89;101833.50;4956669;28;20727;-71
2023/06/12 09:03:19;;;;;;;8.98;4.82;;;;;;;31.19;19.69;101834.97;4959660;28;20095;-71
2023/06/12 09:05:52;;;;;;;6.50;3.65;;;;;;;30.92;19.85;101825.44;4960838;28;20066;-71
2023/06/12 09:08:18;;;;;;;4.28;3.75;;;;;;;32.36;18.74;101824.88;4958732;28;20512;-72
2023/06/12 09:10:44;;;;;;;6.78;3.47;;;;;;;32.94;18.21;101825.16;4959950;28;20042;-72
2023/06/12 09:13:10;;;;;;;8.63;4.95;;;;;;;32.66;17.95;101835.78;4960855;28;20041;-72
2023/06/12 09:15:37;;;;;;;5.13;4.63;;;;;;;32.37;18.16;101832.00;4956075;28;20042;-70
2023/06/12 09:18:09;;;;;;;9.35;4.13;;;;;;;32.69;18.72;101827.28;4963090;28;20046;-69
2023/06/12 09:20:36;;;;;;;6.25;4.03;;;;;;;32.84;18.29;101825.44;4954772;28;20057;-72
2023/06/12 09:23:03;;;;;;;9.10;5.40;;;;;;;32.90;18.32;101823.88;4960673;28;20041;-70
2023/06/12 09:25:39;;;;;;;10.02;4.65;;;;;;;32.22;18.10;101823.00;4953970;28;20053;-72
2023/06/12 09:28:07;;;;;;;8.93;4.32;;;;;;;31.87;19.35;101825.28;4958027;28;20069;-66
2023/06/12 09:30:33;;;;;;;8.38;4.90;;;;;;;32.08;19.09;101830.06;4955121;28;20046;-68
2023/06/12 09:33:00;;;;;;;7.30;5.20;;;;;;;31.90;19.06;101826.81;4958710;28;20129;-72
2023/06/12 09:35:26;;;;;;;10.77;5.22;;;;;;;31.52;20.23;101822.16;4951054;28;20046;-72
2023/06/12 09:37:51;;;;;;;6.93;4.53;;;;;;;31.40;19.84;101815.44;4960846;28;20848;-70
2023/06/12 09:40:17;;;;;;;12.15;5.57;;;;;;;30.75;19.93;101817.38;4955902;28;20037;-69
2023/06/12 09:42:44;;;;;;;8.13;5.47;;;;;;;30.49;20.61;101817.59;4958057;28;20109;-73
2023/06/12 09:45:10;;;;;;;11.63;5.70;;;;;;;30.46;20.50;101817.91;4959977;28;20046;-71
2023/06/12 09:47:47;;;;;;;6.50;5.05;;;;;;;29.83;21.04;101814.03;4970680;28;20034;-72
2023/06/12 09:50:15;;;;;;;8.98;5.47;;;;;;;29.74;21.31;101817.75;4985616;28;20050;-72
2023/06/12 09:52:42;;;;;;;8.02;5.93;;;;;;;28.43;22.77;101823.31;4968738;28;20269;-72
2023/06/12 09:55:11;;;;;;;8.52;5.18;;;;;;;28.36;23.32;101821.41;4959239;28;20042;-69
2023/06/12 09:57:38;;;;;;;10.35;6.10;;;;;;;28.20;23.33;101822.97;4957510;28;20026;-72
2023/06/12 10:00:07;;;;;;;7.35;6.30;;;;;;;27.58;23.91;101820.13;4959578;28;20351;-71
2023/06/12 10:02:43;;;;;;;7.00;5.90;;;;;;;28.20;24.59;101816.75;4959348;28;20027;-69
2023/06/12 10:05:48;;;;;;;16.35;6.25;;;;;;;28.52;23.37;101811.63;4967259;28;20038;-70
2023/06/12 10:08:16;;;;;;;10.20;5.95;;;;;;;29.01;24.07;101813.75;4946080;28;20522;-70
2023/06/12 10:10:43;;;;;;;8.38;5.72;;;;;;;28.85;23.62;101811.00;4961429;28;20042;-70
2023/06/12 10:13:10;;;;;;;11.32;5.75;;;;;;;28.50;24.14;101812.75;4964862;28;20085;-71
2023/06/12 10:15:37;;;;;;;9.65;5.05;;;;;;;29.06;24.23;101813.28;4956889;28;20476;-70
2023/06/12 10:18:04;;;;;;;7.97;5.63;;;;;;;29.07;23.31;101813.13;4963048;28;20050;-71
2023/06/12 10:20:32;;;;;;;8.88;6.35;;;;;;;29.17;23.63;101813.00;4957914;28;20044;-72
2023/06/12 10:22:59;;;;;;;7.40;4.90;;;;;;;29.05;24.17;101812.44;4962470;28;20050;-71
2023/06/12 10:25:24;;;;;;;7.07;6.30;;;;;;;29.53;22.95;101807.41;4960121;28;20042;-71
2023/06/12 10:27:53;;;;;;;12.65;6.25;;;;;;;29.18;22.64;101811.19;4949222;28;20617;-72
2023/06/12 10:30:21;;;;;;;10.18;6.50;;;;;;;29.05;22.83;101812.44;4959473;28;20522;-69
2023/06/12 10:32:46;;;;;;;8.10;6.35;;;;;;;28.49;23.67;101803.03;4961993;28;20565;-70
2023/06/12 10:35:27;;;;;;;8.10;6.38;;;;;;;28.45;23.66;101793.59;4962257;28;20073;-72
2023/06/12 10:37:52;;;;;;;7.35;6.15;;;;;;;28.67;23.72;101795.75;4957423;28;20792;-72
2023/06/12 10:40:22;;;;;;;9.63;6.90;;;;;;;28.25;23.66;101801.00;4959479;28;20036;-72
2023/06/12 10:42:54;;;;;;;7.38;5.28;;;;;;;28.20;24.18;101800.63;4963186;28;20054;-72
2023/06/12 10:45:24;;;;;;;10.35;6.05;;;;;;;28.25;23.60;101801.84;4960637;28;20404;-70
2023/06/12 10:48:08;;;;;;;10.55;6.35;;;;;;;28.20;24.18;101796.09;4963189;28;20042;-71
2023/06/12 10:50:36;;;;;;;9.85;6.30;;;;;;;27.94;23.26;101796.00;4958882;28;20582;-73
2023/06/12 10:53:03;;;;;;;7.00;6.30;;;;;;;27.65;23.20;101790.88;4962285;28;20047;-73
2023/06/12 10:55:28;;;;;;;7.22;5.82;;;;;;;27.82;23.04;101790.03;4955722;28;20048;-71
2023/06/12 10:57:59;;;;;;;8.25;5.80;;;;;;;28.28;22.78;101788.09;4962531;28;20537;-71
2023/06/12 11:00:32;;;;;;;10.30;5.97;;;;;;;27.83;23.32;101789.06;4957194;28;20496;-70
2023/06/12 11:03:10;;;;;;;12.98;5.80;;;;;;;27.52;24.20;101786.69;4951418;28;20241;-70
2023/06/12 11:05:36;;;;;;;6.53;5.93;;;;;;;27.43;23.30;101782.25;4959057;28;20042;-73
2023/06/12 11:08:03;;;;;;;9.05;5.63;;;;;;;27.86;21.57;101788.75;4964442;28;20570;-72
2023/06/12 11:10:30;;;;;;;5.70;4.82;;;;;;;28.27;20.70;101791.78;4958386;28;20046;-73
2023/06/12 11:12:56;;;;;;;5.93;4.65;;;;;;;28.36;21.23;101779.25;4962814;28;20077;-72
2023/06/12 11:15:22;;;;;;;5.80;5.18;;;;;;;27.98;22.20;101777.75;4959366;28;20129;-72
2023/06/12 11:17:48;;;;;;;5.70;5.18;;;;;;;28.47;21.11;101784.34;4960442;28;20095;-73
2023/06/12 11:20:14;;;;;;;8.05;4.65;;;;;;;28.86;20.76;101785.75;4960045;28;20041;-73
2023/06/12 11:22:40;;;;;;;6.68;4.30;;;;;;;29.32;20.74;101791.69;4962138;28;20855;-73
2023/06/12 11:25:06;;;;;;;7.32;4.38;;;;;;;29.38;19.63;101785.66;4960502;28;20072;-72
2023/06/12 11:27:37;;;;;;;5.78;4.43;;;;;;;29.36;20.02;101783.13;4961662;28;20034;-73
2023/06/12 11:30:10;;;;;;;7.68;4.88;;;;;;;29.35;21.11;101783.31;4962771;28;20050;-72
2023/06/12 11:32:36;;;;;;;6.03;5.28;;;;;;;29.05;20.66;101780.13;4960068;28;20030;-72